createdAt,value
2022-08-07T00:01:44.040Z,97870.59
2022-08-07T00:04:09.263Z,97864.75
2022-08-07T00:06:51.171Z,97873.00
2022-08-07T00:09:22.269Z,97874.28
2022-08-07T00:11:55.695Z,97879.47
2022-08-07T00:14:30.286Z,97872.25
2022-08-07T00:16:59.688Z,97873.44
2022-08-07T00:19:59.989Z,97867.63
2022-08-07T00:22:24.499Z,97870.63
2022-08-07T00:25:05.243Z,97873.97
2022-08-07T00:27:53.634Z,97873.13
2022-08-07T00:30:28.129Z,97886.41
2022-08-07T00:32:58.130Z,97878.88
2022-08-07T00:35:29.687Z,97871.66
2022-08-07T00:37:59.615Z,97875.72
2022-08-07T00:40:40.000Z,97878.56
2022-08-07T00:44:00.228Z,97881.06
2022-08-07T00:46:01.764Z,97873.69
2022-08-07T00:48:32.376Z,97875.34
2022-08-07T00:51:02.722Z,97873.03
2022-08-07T00:53:38.352Z,97880.59
2022-08-07T00:56:14.030Z,97874.03
2022-08-07T00:58:47.450Z,97880.13
2022-08-07T01:01:20.388Z,97875.59
2022-08-07T01:03:56.120Z,97865.72
2022-08-07T01:06:27.354Z,97866.53
2022-08-07T01:08:56.302Z,97879.31
2022-08-07T01:12:24.104Z,97878.28
2022-08-07T01:14:17.228Z,97878.09
2022-08-07T01:16:50.504Z,97881.88
2022-08-07T01:19:22.321Z,97878.00
2022-08-07T01:21:55.923Z,97876.16
2022-08-07T01:24:32.412Z,97876.50
2022-08-07T01:27:02.476Z,97873.19
2022-08-07T01:29:33.886Z,97874.19
2022-08-07T01:32:12.278Z,97875.03
2022-08-07T01:34:47.454Z,97870.03
2022-08-07T01:37:20.114Z,97860.69
2022-08-07T01:39:51.144Z,97862.72
2022-08-07T01:42:57.271Z,97866.03
2022-08-07T01:45:36.306Z,97862.59
2022-08-07T01:48:20.923Z,97859.38
2022-08-07T01:51:24.520Z,97861.22
2022-08-07T01:54:11.994Z,97862.06
2022-08-07T01:56:49.690Z,97853.19
2022-08-07T01:59:23.475Z,97851.69
2022-08-07T02:02:06.366Z,97855.94
2022-08-07T02:04:55.691Z,97851.97
2022-08-07T02:07:35.896Z,97845.22
2022-08-07T02:10:16.505Z,97853.25
2022-08-07T02:12:50.096Z,97847.28
2022-08-07T02:15:26.444Z,97844.59
2022-08-07T02:18:00.030Z,97858.16
2022-08-07T02:20:29.483Z,97849.13
2022-08-07T02:23:01.741Z,97853.06
2022-08-07T02:26:30.926Z,97849.72
2022-08-07T02:28:27.041Z,97845.00
2022-08-07T02:31:01.751Z,97838.00
2022-08-07T02:34:01.822Z,97837.22
2022-08-07T02:36:35.840Z,97824.84
2022-08-07T02:39:17.249Z,97827.81
2022-08-07T02:42:03.255Z,97836.84
2022-08-07T02:44:42.266Z,97828.66
2022-08-07T02:47:19.610Z,97827.44
2022-08-07T02:49:58.406Z,97826.63
2022-08-07T02:52:37.280Z,97823.00
2022-08-07T02:55:27.554Z,97820.13
2022-08-07T02:58:04.035Z,97814.22
2022-08-07T03:00:34.910Z,97826.63
2022-08-07T03:03:06.673Z,97832.03
2022-08-07T03:05:38.601Z,97819.16
2022-08-07T03:08:10.841Z,97816.28
2022-08-07T03:10:46.681Z,97817.63
2022-08-07T03:13:20.310Z,97816.84
2022-08-07T03:15:56.568Z,97819.25
2022-08-07T03:18:34.901Z,97813.38
2022-08-07T03:21:08.821Z,97817.19
2022-08-07T03:24:20.376Z,97822.38
2022-08-07T03:26:33.836Z,97817.66
2022-08-07T03:29:10.430Z,97827.19
2022-08-07T03:31:43.242Z,97826.34
2022-08-07T03:34:21.999Z,97820.53
2022-08-07T03:36:53.963Z,97820.53
2022-08-07T03:39:45.890Z,97817.00
2022-08-07T03:42:14.256Z,97823.38
2022-08-07T03:44:47.138Z,97828.72
2022-08-07T03:47:22.791Z,97836.13
2022-08-07T03:49:53.661Z,97838.31
2022-08-07T03:52:29.332Z,97837.97
2022-08-07T03:55:06.043Z,97833.25
2022-08-07T03:58:32.465Z,97834.91
2022-08-07T04:00:36.349Z,97839.63
2022-08-07T04:03:06.316Z,97840.28
2022-08-07T04:05:42.474Z,97843.63
2022-08-07T04:08:21.136Z,97838.63
2022-08-07T04:10:54.201Z,97836.47
2022-08-07T04:14:09.487Z,97841.88
2022-08-07T04:16:33.463Z,97841.88
2022-08-07T04:19:14.607Z,97843.72
2022-08-07T04:21:58.767Z,97837.72
2022-08-07T04:24:34.134Z,97836.69
2022-08-07T04:27:20.713Z,97842.06
2022-08-07T04:30:02.152Z,97838.72
2022-08-07T04:32:58.449Z,97845.91
2022-08-07T04:35:35.521Z,97837.75
2022-08-07T04:38:08.772Z,97841.66
2022-08-07T04:40:51.449Z,97842.09
2022-08-07T04:44:09.966Z,97845.28
2022-08-07T04:46:29.340Z,97845.16
2022-08-07T04:49:17.779Z,97846.53
2022-08-07T04:51:55.675Z,97854.72
2022-08-07T04:54:31.704Z,97853.38
2022-08-07T04:58:16.265Z,97841.00
2022-08-07T05:00:09.818Z,97840.16
2022-08-07T05:02:49.095Z,97849.84
2022-08-07T05:05:53.447Z,97844.50
2022-08-07T05:08:19.325Z,97842.22
2022-08-07T05:11:11.920Z,97842.03
2022-08-07T05:14:54.136Z,97844.88
2022-08-07T05:16:47.561Z,97842.25
2022-08-07T05:19:32.660Z,97847.25
2022-08-07T05:22:12.748Z,97847.59
2022-08-07T05:24:51.156Z,97848.41
2022-08-07T05:28:03.502Z,97853.09
2022-08-07T05:30:11.018Z,97843.06
2022-08-07T05:32:40.882Z,97833.91
2022-08-07T05:35:12.098Z,97840.09
2022-08-07T05:37:42.503Z,97838.94
2022-08-07T05:40:18.128Z,97848.97
2022-08-07T05:42:56.083Z,97846.78
2022-08-07T05:45:47.267Z,97858.81
2022-08-07T05:48:16.600Z,97859.50
2022-08-07T05:50:48.592Z,97850.94
2022-08-07T05:54:11.955Z,97851.63
2022-08-07T05:56:14.858Z,97845.13
2022-08-07T05:58:52.404Z,97840.44
2022-08-07T06:01:23.306Z,97843.13
2022-08-07T06:04:01.152Z,97846.78
2022-08-07T06:06:36.984Z,97848.78
2022-08-07T06:09:10.349Z,97842.59
2022-08-07T06:11:43.478Z,97848.31
2022-08-07T06:14:21.454Z,97854.66
2022-08-07T06:17:00.128Z,97845.97
2022-08-07T06:19:52.253Z,97849.78
2022-08-07T06:22:27.095Z,97841.09
2022-08-07T06:25:18.721Z,97847.28
2022-08-07T06:28:01.433Z,97843.59
2022-08-07T06:30:36.195Z,97838.91
2022-08-07T06:33:16.694Z,97847.94
2022-08-07T06:36:13.530Z,97848.44
2022-08-07T06:38:39.077Z,97849.28
2022-08-07T06:41:59.131Z,97850.94
2022-08-07T06:44:14.554Z,97849.44
2022-08-07T06:46:53.468Z,97852.44
2022-08-07T06:49:50.690Z,97841.75
2022-08-07T06:52:31.313Z,97845.09
2022-08-07T06:55:32.699Z,97849.25
2022-08-07T06:58:00.807Z,97850.94
2022-08-07T07:00:39.230Z,97846.06
2022-08-07T07:03:13.892Z,97845.66
2022-08-07T07:06:04.771Z,97846.56
2022-08-07T07:08:39.714Z,97848.38
2022-08-07T07:12:07.700Z,97848.06
2022-08-07T07:14:05.294Z,97854.22
2022-08-07T07:16:51.195Z,97850.88
2022-08-07T07:19:56.441Z,97842.38
2022-08-07T07:22:34.087Z,97840.88
2022-08-07T07:26:30.460Z,97837.03
2022-08-07T07:28:02.632Z,97833.19
2022-08-07T07:30:38.504Z,97835.69
2022-08-07T07:33:11.695Z,97840.72
2022-08-07T07:35:54.495Z,97826.69
2022-08-07T07:38:32.405Z,97833.00
2022-08-07T07:41:05.260Z,97834.34
2022-08-07T07:43:47.753Z,97834.63
2022-08-07T07:46:38.065Z,97831.84
2022-08-07T07:50:32.770Z,97831.69
2022-08-07T07:52:10.808Z,97828.66
2022-08-07T07:54:44.273Z,97832.84
2022-08-07T07:57:43.598Z,97818.41
2022-08-07T08:00:20.687Z,97823.31
2022-08-07T08:03:06.154Z,97819.00
2022-08-07T08:05:51.002Z,97825.34
2022-08-07T08:08:34.280Z,97812.47
2022-08-07T08:11:08.331Z,97806.47
2022-08-07T08:13:54.521Z,97818.31
2022-08-07T08:16:29.818Z,97802.63
2022-08-07T08:20:16.080Z,97817.34
2022-08-07T08:22:32.848Z,97811.81
2022-08-07T08:25:41.805Z,97803.28
2022-08-07T08:28:10.439Z,97805.44
2022-08-07T08:30:50.818Z,97809.56
2022-08-07T08:33:20.548Z,97800.09
2022-08-07T08:35:54.614Z,97814.25
2022-08-07T08:38:29.911Z,97807.38
2022-08-07T08:41:07.004Z,97807.56
2022-08-07T08:43:42.593Z,97788.31
2022-08-07T08:46:38.508Z,97803.34
2022-08-07T08:49:33.343Z,97795.69
2022-08-07T08:52:40.617Z,97798.84
2022-08-07T08:55:55.121Z,97803.34
2022-08-07T08:58:37.741Z,97799.44
2022-08-07T09:01:14.626Z,97791.09
2022-08-07T09:03:52.974Z,97802.50
2022-08-07T09:06:34.383Z,97797.47
2022-08-07T09:09:09.564Z,97792.47
2022-08-07T09:12:01.688Z,97786.75
2022-08-07T09:14:42.238Z,97791.09
2022-08-07T09:17:26.547Z,97791.25
2022-08-07T09:20:09.430Z,97788.75
2022-08-07T09:24:34.137Z,97791.06
2022-08-07T09:25:57.872Z,97791.38
2022-08-07T09:30:01.889Z,97787.88
2022-08-07T09:31:33.653Z,97786.69
2022-08-07T09:34:16.338Z,97797.69
2022-08-07T09:36:50.008Z,97787.66
2022-08-07T09:39:54.266Z,97791.34
2022-08-07T09:42:33.745Z,97784.63
2022-08-07T09:47:25.813Z,97784.81
2022-08-07T09:48:12.062Z,97776.25
2022-08-07T09:50:51.430Z,97783.25
2022-08-07T09:53:23.407Z,97775.91
2022-08-07T09:56:19.618Z,97774.56
2022-08-07T09:59:07.718Z,97780.28
2022-08-07T10:01:55.511Z,97774.22
2022-08-07T10:04:39.337Z,97766.72
2022-08-07T10:07:53.056Z,97765.19
2022-08-07T10:11:58.962Z,97762.91
2022-08-07T10:14:00.181Z,97761.38
2022-08-07T10:16:43.329Z,97753.56
2022-08-07T10:19:23.797Z,97747.09
2022-08-07T10:22:15.600Z,97759.47
2022-08-07T10:24:52.229Z,97751.97
2022-08-07T10:27:45.914Z,97754.66
2022-08-07T10:30:17.900Z,97738.41
2022-08-07T10:34:05.913Z,97736.56
2022-08-07T10:36:29.867Z,97735.91
2022-08-07T10:39:02.104Z,97730.19
2022-08-07T10:41:47.027Z,97740.25
2022-08-07T10:44:37.382Z,97736.75
2022-08-07T10:47:18.747Z,97725.69
2022-08-07T10:50:01.434Z,97725.03
2022-08-07T10:52:35.221Z,97723.19
2022-08-07T10:55:27.068Z,97726.69
2022-08-07T10:58:33.122Z,97722.81
2022-08-07T11:01:16.562Z,97726.88
2022-08-07T11:03:55.271Z,97715.16
2022-08-07T11:06:41.131Z,97713.41
2022-08-07T11:10:07.924Z,97720.44
2022-08-07T11:12:08.274Z,97714.53
2022-08-07T11:15:00.151Z,97709.66
2022-08-07T11:17:45.166Z,97715.31
2022-08-07T11:20:18.966Z,97707.63
2022-08-07T11:22:59.335Z,97693.88
2022-08-07T11:25:36.129Z,97697.09
2022-08-07T11:28:17.582Z,97701.56
2022-08-07T11:30:52.864Z,97696.00
2022-08-07T11:33:58.575Z,97690.47
2022-08-07T11:36:31.350Z,97682.06
2022-08-07T11:39:07.440Z,97687.78
2022-08-07T11:42:00.287Z,97679.22
2022-08-07T11:44:37.493Z,97684.34
2022-08-07T11:47:10.519Z,97681.59
2022-08-07T11:50:32.338Z,97674.00
2022-08-07T11:53:16.934Z,97671.69
2022-08-07T11:56:24.892Z,97670.03
2022-08-07T11:58:58.917Z,97673.81
2022-08-07T12:01:59.158Z,97670.13
2022-08-07T12:04:58.630Z,97669.19
2022-08-07T12:07:39.108Z,97671.69
2022-08-07T12:10:12.449Z,97670.94
2022-08-07T12:12:47.069Z,97662.06
2022-08-07T12:15:46.334Z,97662.91
2022-08-07T12:18:16.115Z,97662.91
2022-08-07T12:21:01.644Z,97656.97
2022-08-07T12:24:06.956Z,97658.41
2022-08-07T12:26:40.750Z,97648.97
2022-08-07T12:29:37.847Z,97644.78
2022-08-07T12:32:18.987Z,97639.69
2022-08-07T12:34:55.741Z,97632.47
2022-08-07T12:37:27.876Z,97637.25
2022-08-07T12:40:44.983Z,97635.59
2022-08-07T12:43:10.049Z,97626.09
2022-08-07T12:45:52.286Z,97630.25
2022-08-07T12:48:52.221Z,97624.31
2022-08-07T12:51:20.864Z,97622.91
2022-08-07T12:54:02.726Z,97616.38
2022-08-07T12:56:51.306Z,97609.81
2022-08-07T12:59:30.447Z,97618.31
2022-08-07T13:02:13.231Z,97612.75
2022-08-07T13:05:01.633Z,97609.44
2022-08-07T13:08:13.464Z,97609.34
2022-08-07T13:10:52.195Z,97601.13
2022-08-07T13:13:47.924Z,97603.06
2022-08-07T13:16:26.679Z,97605.81
2022-08-07T13:19:02.557Z,97594.25
2022-08-07T13:21:51.141Z,97596.53
2022-08-07T13:24:25.693Z,97584.88
2022-08-07T13:27:05.671Z,97573.94
2022-08-07T13:29:42.307Z,97578.66
2022-08-07T13:32:32.677Z,97582.00
2022-08-07T13:35:10.892Z,97578.50
2022-08-07T13:37:43.426Z,97577.63
2022-08-07T13:40:35.062Z,97582.22
2022-08-07T13:43:13.815Z,97579.41
2022-08-07T13:46:20.894Z,97562.66
2022-08-07T13:48:38.725Z,97562.47
2022-08-07T13:51:27.153Z,97563.56
2022-08-07T13:54:02.058Z,97558.06
2022-08-07T13:56:35.720Z,97547.97
2022-08-07T13:59:13.585Z,97550.69
2022-08-07T14:01:51.027Z,97551.53
2022-08-07T14:04:29.724Z,97551.53
2022-08-07T14:06:59.982Z,97545.97
2022-08-07T14:10:02.605Z,97550.13
2022-08-07T14:12:28.103Z,97544.25
2022-08-07T14:15:01.771Z,97533.75
2022-08-07T14:18:12.711Z,97537.44
2022-08-07T14:20:40.550Z,97531.31
2022-08-07T14:23:31.206Z,97526.13
2022-08-07T14:30:02.956Z,97528.84
2022-08-07T14:31:56.462Z,97530.31
2022-08-07T14:34:30.481Z,97519.78
2022-08-07T14:37:01.639Z,97524.31
2022-08-07T14:40:14.563Z,97535.06
2022-08-07T14:42:32.310Z,97530.13
2022-08-07T14:45:21.258Z,97524.38
2022-08-07T14:47:52.983Z,97524.81
2022-08-07T14:50:28.129Z,97532.84
2022-08-07T14:53:07.757Z,97527.44
2022-08-07T14:55:56.516Z,97525.38
2022-08-07T14:58:33.797Z,97519.81
2022-08-07T15:03:53.347Z,97527.47
2022-08-07T15:06:25.243Z,97525.00
2022-08-07T15:20:32.904Z,97515.94
2022-08-07T15:23:20.377Z,97513.25
2022-08-07T15:25:53.240Z,97518.63
2022-08-07T15:28:34.412Z,97511.41
2022-08-07T15:31:09.939Z,97502.50
2022-08-07T15:33:42.861Z,97500.66
2022-08-07T15:36:13.158Z,97505.84
2022-08-07T15:38:58.526Z,97503.78
2022-08-07T15:42:43.486Z,97512.88
2022-08-07T15:44:23.879Z,97498.81
2022-08-07T15:47:03.330Z,97503.97
2022-08-07T15:52:30.713Z,97499.44
2022-08-07T15:55:02.807Z,97495.31
2022-08-07T15:57:39.980Z,97494.50
2022-08-07T16:00:31.897Z,97493.22
2022-08-07T16:03:22.132Z,97496.75
2022-08-07T16:05:59.298Z,97488.06
2022-08-07T16:08:37.704Z,97491.38
2022-08-07T16:11:26.545Z,97487.47
2022-08-07T16:14:03.124Z,97492.19
2022-08-07T16:17:15.037Z,97486.00
2022-08-07T16:19:58.497Z,97487.66
2022-08-07T16:22:55.269Z,97490.34
2022-08-07T16:25:54.716Z,97488.28
2022-08-07T16:30:08.882Z,97486.00
2022-08-07T16:31:58.299Z,97478.13
2022-08-07T16:34:40.899Z,97485.78
2022-08-07T16:38:05.923Z,97481.66
2022-08-07T16:40:32.094Z,97489.91
2022-08-07T16:43:09.138Z,97484.31
2022-08-07T16:50:27.448Z,97494.03
2022-08-07T16:52:50.676Z,97490.50
2022-08-07T16:55:17.047Z,97495.06
2022-08-07T16:58:02.666Z,97493.81
2022-08-07T17:00:41.092Z,97494.66
2022-08-07T17:03:58.000Z,97504.56
2022-08-07T17:06:28.908Z,97496.50
2022-08-07T17:09:09.150Z,97495.88
2022-08-07T17:12:04.578Z,97501.25
2022-08-07T17:14:43.213Z,97499.78
2022-08-07T17:17:46.751Z,97499.78
2022-08-07T17:20:30.014Z,97498.97
2022-08-07T17:23:08.627Z,97511.91
2022-08-07T17:25:57.279Z,97506.47
2022-08-07T17:28:33.145Z,97506.00
2022-08-07T17:31:16.185Z,97507.16
2022-08-07T17:34:15.429Z,97515.97
2022-08-07T17:36:57.610Z,97512.28
2022-08-07T17:39:53.180Z,97514.56
2022-08-07T17:42:59.277Z,97512.25
2022-08-07T17:45:35.207Z,97524.84
2022-08-07T17:48:11.160Z,97512.66
2022-08-07T17:50:54.220Z,97518.63
2022-08-07T17:54:00.983Z,97527.06
2022-08-07T17:56:29.237Z,97520.81
2022-08-07T17:59:09.254Z,97519.59
2022-08-07T18:01:48.425Z,97523.50
2022-08-07T18:04:31.098Z,97526.16
2022-08-07T18:07:20.503Z,97526.28
2022-08-07T18:10:05.818Z,97523.44
2022-08-07T18:12:51.446Z,97528.84
2022-08-07T18:15:32.327Z,97540.59
2022-08-07T18:18:46.422Z,97540.91
2022-08-07T18:21:42.191Z,97529.91
2022-08-07T18:24:07.171Z,97537.59
2022-08-07T18:27:18.425Z,97541.75
2022-08-07T18:30:04.495Z,97544.25
2022-08-07T18:33:21.408Z,97545.53
2022-08-07T18:36:06.099Z,97551.44
2022-08-07T18:38:58.182Z,97549.41
2022-08-07T18:41:45.797Z,97556.81
2022-08-07T18:45:40.054Z,97551.72
2022-08-07T18:47:44.614Z,97559.88
2022-08-07T18:50:45.707Z,97565.69
2022-08-07T18:53:39.276Z,97578.09
2022-08-07T18:56:15.215Z,97586.88
2022-08-07T18:59:01.041Z,97596.78
2022-08-07T19:02:19.499Z,97589.56
2022-08-07T19:04:39.677Z,97594.44
2022-08-07T19:07:35.084Z,97595.19
2022-08-07T19:10:15.123Z,97606.28
2022-08-07T19:12:59.153Z,97614.34
2022-08-07T19:16:05.757Z,97618.59
2022-08-07T19:18:34.841Z,97623.69
2022-08-07T19:21:14.533Z,97625.09
2022-08-07T19:24:02.500Z,97637.75
2022-08-07T19:27:08.890Z,97640.06
2022-08-07T19:31:05.485Z,97638.59
2022-08-07T19:32:39.543Z,97645.25
2022-08-07T19:35:11.865Z,97632.00
2022-08-07T19:37:55.128Z,97633.66
2022-08-07T19:40:31.060Z,97648.75
2022-08-07T19:43:10.633Z,97644.25
2022-08-07T19:46:06.155Z,97649.38
2022-08-07T19:48:42.646Z,97647.59
2022-08-07T19:51:19.328Z,97648.22
2022-08-07T19:54:33.179Z,97646.16
2022-08-07T19:57:50.932Z,97645.22
2022-08-07T19:59:41.636Z,97650.53
2022-08-07T20:02:21.305Z,97647.59
2022-08-07T20:04:51.971Z,97649.59
2022-08-07T20:07:46.080Z,97648.84
2022-08-07T20:10:37.643Z,97654.06
2022-08-07T20:13:22.499Z,97646.09
2022-08-07T20:15:54.846Z,97644.06
2022-08-07T20:18:32.972Z,97642.97
2022-08-07T20:21:14.365Z,97641.94
2022-08-07T20:23:51.839Z,97643.50
2022-08-07T20:26:32.613Z,97636.09
2022-08-07T20:29:46.494Z,97638.59
2022-08-07T20:32:02.729Z,97632.31
2022-08-07T20:34:50.181Z,97633.81
2022-08-07T20:37:25.117Z,97633.44
2022-08-07T20:40:03.004Z,97636.69
2022-08-07T20:42:35.255Z,97634.66
2022-08-07T20:45:33.663Z,97638.06
2022-08-07T20:47:58.602Z,97639.81
2022-08-07T20:50:30.316Z,97638.53
2022-08-07T20:53:00.456Z,97636.59
2022-08-07T20:55:32.276Z,97632.66
2022-08-07T20:58:12.195Z,97633.16
2022-08-07T21:00:57.752Z,97639.03
2022-08-07T21:03:28.833Z,97627.28
2022-08-07T21:06:00.822Z,97630.31
2022-08-07T21:08:37.128Z,97619.53
2022-08-07T21:11:10.711Z,97622.31
2022-08-07T21:13:57.518Z,97621.81
2022-08-07T21:16:37.771Z,97630.41
2022-08-07T21:19:32.301Z,97625.59
2022-08-07T21:22:19.160Z,97629.00
2022-08-07T21:25:12.166Z,97623.28
2022-08-07T21:28:01.745Z,97630.66
2022-08-07T21:30:39.421Z,97627.41
2022-08-07T21:33:16.789Z,97615.69
2022-08-07T21:36:06.680Z,97630.91
2022-08-07T21:38:50.009Z,97624.84
2022-08-07T21:41:24.474Z,97636.38
2022-08-07T21:43:57.089Z,97627.88
2022-08-07T21:46:33.229Z,97624.06
2022-08-07T21:49:16.037Z,97638.50
2022-08-07T21:51:59.506Z,97641.09
2022-08-07T21:54:33.713Z,97629.47
2022-08-07T21:57:15.933Z,97635.53
2022-08-07T22:00:05.743Z,97642.00
2022-08-07T22:02:41.406Z,97635.94
2022-08-07T22:05:21.698Z,97631.09
2022-08-07T22:08:02.933Z,97636.88
2022-08-07T22:10:35.302Z,97632.63
2022-08-07T22:13:09.037Z,97633.28
2022-08-07T22:16:38.768Z,97643.25
2022-08-07T22:18:36.759Z,97642.00
2022-08-07T22:21:14.896Z,97642.06
2022-08-07T22:23:51.446Z,97639.56
2022-08-07T22:26:22.952Z,97650.09
2022-08-07T22:28:55.945Z,97651.69
2022-08-07T22:31:56.001Z,97650.44
2022-08-07T22:34:28.623Z,97647.56
2022-08-07T22:37:05.782Z,97656.75
2022-08-07T22:39:52.825Z,97647.94
2022-08-07T22:42:26.124Z,97658.28
2022-08-07T22:45:02.453Z,97652.38
2022-08-07T22:47:56.931Z,97657.03
2022-08-07T22:51:03.742Z,97654.72
2022-08-07T22:54:06.686Z,97654.34
2022-08-07T22:56:42.145Z,97653.22
2022-08-07T22:59:35.630Z,97654.25
2022-08-07T23:02:27.393Z,97654.94
2022-08-07T23:06:06.993Z,97659.59
2022-08-07T23:07:55.110Z,97658.00
2022-08-07T23:10:37.429Z,97658.56
2022-08-07T23:13:22.134Z,97663.19
2022-08-07T23:16:06.870Z,97657.47
2022-08-07T23:19:13.869Z,97649.09
2022-08-07T23:21:47.880Z,97655.09
2022-08-07T23:24:38.683Z,97648.72
2022-08-07T23:27:33.534Z,97649.38
2022-08-07T23:30:37.466Z,97645.03
2022-08-07T23:34:36.419Z,97644.75
2022-08-07T23:36:22.902Z,97643.53
2022-08-07T23:39:08.377Z,97652.69
2022-08-07T23:42:04.483Z,97652.69
2022-08-07T23:44:42.060Z,97655.84
2022-08-07T23:47:21.238Z,97652.34
2022-08-07T23:50:05.380Z,97652.97
2022-08-07T23:52:58.161Z,97651.13
2022-08-07T23:55:53.074Z,97652.81
2022-08-07T23:58:26.772Z,97656.31
